createdAt,value
2022-08-21T00:01:46.889Z,1.20
2022-08-21T00:04:22.426Z,1.17
2022-08-21T00:06:50.761Z,1.48
2022-08-21T00:09:19.509Z,1.05
2022-08-21T00:11:49.061Z,0.85
2022-08-21T00:14:17.594Z,1.20
2022-08-21T00:16:45.369Z,1.23
2022-08-21T00:19:13.178Z,0.50
2022-08-21T00:21:41.095Z,0.80
2022-08-21T00:24:12.812Z,1.00
2022-08-21T00:26:40.639Z,0.98
2022-08-21T00:29:10.340Z,0.95
2022-08-21T00:31:38.239Z,0.90
2022-08-21T00:34:06.256Z,0.68
2022-08-21T00:36:34.081Z,0.90
2022-08-21T00:39:02.488Z,0.68
2022-08-21T00:41:37.585Z,0.70
2022-08-21T00:44:11.328Z,0.50
2022-08-21T00:46:40.219Z,0.70
2022-08-21T00:49:10.011Z,0.45
2022-08-21T00:51:45.978Z,0.95
2022-08-21T00:54:18.797Z,1.13
2022-08-21T00:56:52.021Z,1.05
2022-08-21T00:59:23.757Z,1.17
2022-08-21T01:01:53.082Z,1.10
2022-08-21T01:04:22.109Z,1.20
2022-08-21T01:06:49.855Z,0.82
2022-08-21T01:09:17.746Z,0.73
2022-08-21T01:11:47.127Z,0.75
2022-08-21T01:14:16.652Z,1.10
2022-08-21T01:16:51.780Z,0.47
2022-08-21T01:19:22.608Z,0.95
2022-08-21T01:21:52.297Z,1.23
2022-08-21T01:24:20.162Z,0.65
2022-08-21T01:26:49.948Z,1.02
2022-08-21T01:29:32.515Z,0.68
2022-08-21T01:32:01.284Z,0.95
2022-08-21T01:34:29.066Z,0.60
2022-08-21T01:36:58.190Z,0.60
2022-08-21T01:39:25.967Z,0.60
2022-08-21T01:41:53.723Z,0.88
2022-08-21T01:44:23.428Z,0.70
2022-08-21T01:46:52.468Z,0.28
2022-08-21T01:49:20.337Z,1.17
2022-08-21T01:51:48.477Z,0.77
2022-08-21T01:54:17.585Z,0.57
2022-08-21T01:56:50.636Z,0.57
2022-08-21T01:59:18.656Z,0.60
2022-08-21T02:01:46.793Z,0.47
2022-08-21T02:04:14.838Z,0.70
2022-08-21T02:06:42.874Z,0.95
2022-08-21T02:09:13.227Z,0.88
2022-08-21T02:11:43.997Z,1.00
2022-08-21T02:14:14.430Z,1.15
2022-08-21T02:16:43.374Z,1.02
2022-08-21T02:19:13.043Z,0.70
2022-08-21T02:21:40.837Z,1.02
2022-08-21T02:24:09.692Z,0.85
2022-08-21T02:26:37.614Z,1.17
2022-08-21T02:29:08.167Z,1.13
2022-08-21T02:31:36.308Z,1.58
2022-08-21T02:34:04.510Z,1.92
2022-08-21T02:36:32.864Z,1.33
2022-08-21T02:39:00.628Z,1.58
2022-08-21T02:41:28.453Z,0.85
2022-08-21T02:43:56.215Z,0.98
2022-08-21T02:46:25.382Z,1.05
2022-08-21T02:48:53.136Z,0.80
2022-08-21T02:51:23.516Z,1.00
2022-08-21T02:53:52.359Z,0.80
2022-08-21T02:56:23.683Z,0.82
2022-08-21T02:58:54.152Z,1.15
2022-08-21T03:01:22.712Z,0.60
2022-08-21T03:03:52.615Z,1.20
2022-08-21T03:06:23.691Z,1.33
2022-08-21T03:08:51.806Z,1.50
2022-08-21T03:11:21.629Z,1.40
2022-08-21T03:13:49.413Z,1.38
2022-08-21T03:16:17.224Z,1.30
2022-08-21T03:18:44.952Z,0.93
2022-08-21T03:21:14.711Z,0.90
2022-08-21T03:23:42.964Z,1.13
2022-08-21T03:26:12.578Z,0.88
2022-08-21T03:28:41.004Z,0.90
2022-08-21T03:31:09.521Z,1.27
2022-08-21T03:33:37.536Z,0.70
2022-08-21T03:36:09.538Z,0.80
2022-08-21T03:38:39.629Z,0.65
2022-08-21T03:41:09.234Z,1.02
2022-08-21T03:43:39.365Z,0.68
2022-08-21T03:46:08.169Z,0.63
2022-08-21T03:48:38.181Z,0.93
2022-08-21T03:51:07.224Z,0.90
2022-08-21T03:53:35.915Z,1.15
2022-08-21T03:56:06.707Z,0.85
2022-08-21T03:58:34.779Z,0.85
2022-08-21T04:01:05.432Z,1.67
2022-08-21T04:03:33.526Z,1.15
2022-08-21T04:06:01.664Z,0.93
2022-08-21T04:08:29.413Z,1.08
2022-08-21T04:11:00.668Z,1.08
2022-08-21T04:13:29.972Z,0.65
2022-08-21T04:15:59.944Z,1.23
2022-08-21T04:18:27.772Z,1.35
2022-08-21T04:20:59.575Z,0.85
2022-08-21T04:23:28.458Z,1.33
2022-08-21T04:25:58.614Z,1.52
2022-08-21T04:28:30.370Z,1.60
2022-08-21T04:30:59.796Z,1.42
2022-08-21T04:33:27.899Z,1.70
2022-08-21T04:35:56.166Z,1.52
2022-08-21T04:38:24.352Z,1.42
2022-08-21T04:40:53.798Z,1.63
2022-08-21T04:43:22.349Z,0.90
2022-08-21T04:45:53.604Z,1.75
2022-08-21T04:48:24.938Z,0.50
2022-08-21T04:50:58.798Z,1.13
2022-08-21T04:53:33.505Z,1.17
2022-08-21T04:56:09.112Z,0.90
2022-08-21T04:58:40.414Z,1.30
2022-08-21T05:01:17.959Z,1.10
2022-08-21T05:03:50.570Z,1.27
2022-08-21T05:06:19.332Z,1.40
2022-08-21T05:08:51.494Z,1.00
2022-08-21T05:11:29.847Z,1.48
2022-08-21T05:13:57.672Z,1.35
2022-08-21T05:16:36.953Z,1.42
2022-08-21T05:19:05.971Z,1.48
2022-08-21T05:21:34.959Z,1.15
2022-08-21T05:24:02.872Z,1.50
2022-08-21T05:26:30.646Z,1.52
2022-08-21T05:28:58.770Z,1.88
2022-08-21T05:31:28.162Z,1.05
2022-08-21T05:33:56.042Z,1.08
2022-08-21T05:36:23.870Z,1.55
2022-08-21T05:38:51.807Z,1.50
2022-08-21T05:41:19.576Z,1.67
2022-08-21T05:43:47.378Z,1.63
2022-08-21T05:46:15.194Z,1.73
2022-08-21T05:48:44.308Z,1.20
2022-08-21T05:51:16.057Z,1.27
2022-08-21T05:53:44.741Z,1.08
2022-08-21T05:56:14.949Z,1.50
2022-08-21T05:58:43.147Z,1.60
2022-08-21T06:01:11.717Z,1.75
2022-08-21T06:03:44.371Z,1.95
2022-08-21T06:06:12.372Z,2.13
2022-08-21T06:08:40.366Z,1.60
2022-08-21T06:11:10.451Z,1.70
2022-08-21T06:13:39.849Z,1.75
2022-08-21T06:16:11.961Z,1.90
2022-08-21T06:18:47.276Z,1.90
2022-08-21T06:21:15.882Z,1.95
2022-08-21T06:23:44.849Z,1.90
2022-08-21T06:26:15.488Z,2.03
2022-08-21T06:28:44.414Z,1.80
2022-08-21T06:31:15.451Z,2.50
2022-08-21T06:33:45.221Z,2.58
2022-08-21T06:36:13.949Z,1.95
2022-08-21T06:38:42.526Z,2.80
2022-08-21T06:41:24.359Z,2.20
2022-08-21T06:43:56.430Z,2.30
2022-08-21T06:46:24.704Z,2.33
2022-08-21T06:48:54.186Z,2.25
2022-08-21T06:51:22.547Z,2.60
2022-08-21T06:53:51.289Z,2.22
2022-08-21T06:56:19.357Z,2.30
2022-08-21T06:58:47.904Z,2.20
2022-08-21T07:01:15.699Z,2.33
2022-08-21T07:03:44.945Z,2.20
2022-08-21T07:06:14.124Z,2.47
2022-08-21T07:08:41.881Z,2.60
2022-08-21T07:11:16.538Z,2.88
2022-08-21T07:13:44.868Z,2.20
2022-08-21T07:16:12.742Z,2.53
2022-08-21T07:18:40.551Z,2.63
2022-08-21T07:21:10.158Z,2.25
2022-08-21T07:23:45.854Z,2.70
2022-08-21T07:26:15.887Z,2.15
2022-08-21T07:28:43.980Z,2.70
2022-08-21T07:31:16.376Z,2.35
2022-08-21T07:33:45.445Z,2.25
2022-08-21T07:36:13.790Z,2.50
2022-08-21T07:38:43.266Z,2.40
2022-08-21T07:41:17.658Z,2.58
2022-08-21T07:46:15.725Z,2.30
2022-08-21T07:48:43.846Z,2.72
2022-08-21T07:51:15.676Z,2.30
2022-08-21T07:53:51.130Z,2.22
2022-08-21T07:56:20.209Z,2.42
2022-08-21T07:58:48.566Z,2.38
2022-08-21T08:01:16.931Z,2.60
2022-08-21T08:03:45.970Z,2.35
2022-08-21T08:06:14.763Z,2.22
2022-08-21T08:08:44.642Z,2.15
2022-08-21T08:11:16.078Z,2.35
2022-08-21T08:13:46.899Z,2.50
2022-08-21T08:16:15.270Z,2.42
2022-08-21T08:18:43.693Z,2.30
2022-08-21T08:21:12.187Z,2.28
2022-08-21T08:23:40.416Z,2.28
2022-08-21T08:26:09.610Z,2.28
2022-08-21T08:28:38.043Z,2.22
2022-08-21T08:31:06.337Z,2.22
2022-08-21T08:33:34.369Z,2.15
2022-08-21T08:36:07.055Z,2.28
2022-08-21T08:38:36.154Z,1.80
2022-08-21T08:41:13.838Z,1.98
2022-08-21T08:43:46.594Z,2.33
2022-08-21T08:46:18.513Z,1.80
2022-08-21T08:48:54.630Z,1.88
2022-08-21T08:51:35.514Z,1.95
2022-08-21T08:54:13.710Z,2.03
2022-08-21T08:56:43.413Z,2.05
2022-08-21T08:59:20.848Z,2.10
2022-08-21T09:01:49.496Z,1.88
2022-08-21T09:04:25.177Z,1.70
2022-08-21T09:07:11.675Z,1.65
2022-08-21T09:09:57.596Z,1.80
2022-08-21T09:12:48.131Z,1.83
2022-08-21T09:15:30.884Z,1.98
2022-08-21T09:18:36.469Z,1.70
2022-08-21T09:21:21.448Z,1.60
2022-08-21T09:23:58.753Z,1.40
2022-08-21T09:26:33.602Z,1.52
2022-08-21T09:29:04.098Z,1.58
2022-08-21T09:31:35.405Z,1.75
2022-08-21T09:34:07.131Z,1.83
2022-08-21T09:36:46.400Z,1.42
2022-08-21T09:39:25.737Z,1.80
2022-08-21T09:41:59.625Z,1.88
2022-08-21T09:44:32.667Z,1.33
2022-08-21T09:47:00.502Z,1.48
2022-08-21T09:49:30.838Z,1.83
2022-08-21T09:52:01.145Z,1.63
2022-08-21T09:54:36.079Z,1.63
2022-08-21T09:57:35.891Z,1.25
2022-08-21T10:00:20.310Z,1.42
2022-08-21T10:02:48.223Z,1.05
2022-08-21T10:05:23.662Z,1.48
2022-08-21T10:07:53.078Z,1.70
2022-08-21T10:10:27.553Z,1.48
2022-08-21T10:13:06.322Z,1.45
2022-08-21T10:15:49.957Z,1.60
2022-08-21T10:18:29.664Z,1.13
2022-08-21T10:21:12.130Z,1.50
2022-08-21T10:23:55.979Z,1.08
2022-08-21T10:26:46.797Z,0.82
2022-08-21T10:29:37.725Z,1.00
2022-08-21T10:32:28.740Z,1.38
2022-08-21T10:35:09.250Z,1.13
2022-08-21T10:37:53.959Z,0.95
2022-08-21T10:40:31.229Z,1.02
2022-08-21T10:43:19.720Z,1.17
2022-08-21T10:46:02.541Z,0.93
2022-08-21T10:48:39.353Z,1.60
2022-08-21T10:51:17.593Z,0.80
2022-08-21T10:54:01.621Z,0.93
2022-08-21T10:56:34.429Z,1.08
2022-08-21T10:59:23.705Z,1.00
2022-08-21T11:02:01.588Z,1.00
2022-08-21T11:04:49.061Z,0.70
2022-08-21T11:07:24.754Z,1.00
2022-08-21T11:09:57.652Z,1.05
2022-08-21T11:12:36.216Z,0.70
2022-08-21T11:15:29.662Z,0.63
2022-08-21T11:18:14.799Z,0.80
2022-08-21T11:20:53.368Z,0.82
2022-08-21T11:23:27.324Z,0.77
2022-08-21T11:26:04.214Z,0.95
2022-08-21T11:28:41.610Z,0.80
2022-08-21T11:31:31.056Z,1.13
2022-08-21T11:34:21.888Z,0.82
2022-08-21T11:37:07.130Z,0.70
2022-08-21T11:39:52.709Z,1.17
2022-08-21T11:42:35.822Z,0.80
2022-08-21T11:45:20.178Z,0.95
2022-08-21T11:48:03.222Z,0.80
2022-08-21T11:50:35.675Z,0.93
2022-08-21T11:53:13.808Z,0.50
2022-08-21T11:55:48.039Z,0.80
2022-08-21T11:58:25.641Z,0.90
2022-08-21T12:01:00.369Z,0.95
2022-08-21T12:03:32.775Z,0.70
2022-08-21T12:06:08.363Z,0.60
2022-08-21T12:08:41.937Z,1.65
2022-08-21T12:11:24.572Z,1.23
2022-08-21T12:14:12.943Z,1.00
2022-08-21T12:16:44.288Z,0.93
2022-08-21T12:19:15.628Z,0.47
2022-08-21T12:22:12.161Z,0.75
2022-08-21T12:24:45.559Z,0.73
2022-08-21T12:27:30.349Z,0.85
2022-08-21T12:30:02.728Z,0.88
2022-08-21T12:32:43.852Z,0.93
2022-08-21T12:35:24.799Z,0.88
2022-08-21T12:38:04.278Z,0.90
2022-08-21T12:40:42.030Z,0.98
2022-08-21T12:43:20.460Z,0.68
2022-08-21T12:45:51.892Z,0.70
2022-08-21T12:48:27.115Z,0.77
2022-08-21T12:50:58.494Z,0.73
2022-08-21T12:53:33.983Z,0.57
2022-08-21T12:56:09.913Z,0.68
2022-08-21T12:58:38.253Z,0.73
2022-08-21T13:01:13.264Z,0.75
2022-08-21T13:03:42.949Z,0.65
2022-08-21T13:06:18.819Z,0.93
2022-08-21T13:08:49.879Z,0.60
2022-08-21T13:11:32.429Z,0.90
2022-08-21T13:14:05.269Z,0.80
2022-08-21T13:16:36.292Z,0.52
2022-08-21T13:19:08.096Z,0.65
2022-08-21T13:21:42.473Z,0.73
2022-08-21T13:27:21.153Z,0.60
2022-08-21T13:29:54.210Z,0.63
2022-08-21T13:32:28.870Z,0.65
2022-08-21T13:34:56.820Z,0.52
2022-08-21T13:37:29.007Z,0.95
2022-08-21T13:39:57.018Z,0.95
2022-08-21T13:42:26.483Z,0.57
2022-08-21T13:44:55.904Z,0.65
2022-08-21T13:47:23.923Z,0.98
2022-08-21T13:49:58.947Z,0.95
2022-08-21T13:52:29.286Z,0.77
2022-08-21T13:55:01.502Z,0.60
2022-08-21T13:57:33.797Z,0.82
2022-08-21T14:00:19.465Z,0.57
2022-08-21T14:02:54.072Z,0.50
2022-08-21T14:05:28.022Z,0.65
2022-08-21T14:10:33.406Z,0.43
2022-08-21T14:13:06.700Z,0.63
2022-08-21T14:15:36.912Z,0.47
2022-08-21T14:18:17.478Z,0.73
2022-08-21T14:20:46.319Z,0.57
2022-08-21T14:23:25.159Z,0.90
2022-08-21T14:25:54.166Z,1.00
2022-08-21T14:28:28.768Z,0.73
2022-08-21T14:30:58.692Z,0.90
2022-08-21T14:33:30.518Z,0.52
2022-08-21T14:35:59.427Z,0.80
2022-08-21T14:38:29.990Z,0.90
2022-08-21T14:41:05.179Z,0.70
2022-08-21T14:43:34.305Z,0.65
2022-08-21T14:46:03.089Z,0.80
2022-08-21T14:48:30.835Z,0.80
2022-08-21T14:51:00.719Z,0.82
2022-08-21T14:53:28.888Z,0.60
2022-08-21T14:56:08.673Z,0.55
2022-08-21T14:58:41.993Z,0.40
2022-08-21T15:01:13.336Z,0.52
2022-08-21T15:03:41.568Z,0.90
2022-08-21T15:06:11.120Z,0.90
2022-08-21T15:08:39.161Z,0.80
2022-08-21T15:11:13.588Z,1.08
2022-08-21T15:13:44.854Z,0.55
2022-08-21T15:16:14.136Z,0.80
2022-08-21T15:18:42.942Z,0.95
2022-08-21T15:21:10.941Z,0.60
2022-08-21T15:23:39.774Z,0.77
2022-08-21T15:26:11.803Z,0.70
2022-08-21T15:28:39.876Z,0.50
2022-08-21T15:31:09.214Z,0.75
2022-08-21T15:33:36.974Z,0.80
2022-08-21T15:36:05.473Z,0.80
2022-08-21T15:38:33.309Z,0.20
2022-08-21T15:41:01.192Z,0.57
2022-08-21T15:43:32.692Z,0.90
2022-08-21T15:46:02.282Z,1.05
2022-08-21T15:48:31.585Z,1.13
2022-08-21T15:50:59.376Z,0.93
2022-08-21T15:53:27.294Z,0.55
2022-08-21T15:55:56.031Z,0.60
2022-08-21T15:58:24.465Z,0.90
2022-08-21T16:00:52.375Z,0.52
2022-08-21T16:03:22.794Z,0.65
2022-08-21T16:05:53.820Z,1.33
2022-08-21T16:08:22.645Z,0.52
2022-08-21T16:10:50.958Z,0.65
2022-08-21T16:13:25.057Z,0.77
2022-08-21T16:15:53.296Z,1.30
2022-08-21T16:18:24.002Z,0.75
2022-08-21T16:20:54.221Z,0.47
2022-08-21T16:23:21.990Z,0.60
2022-08-21T16:25:50.709Z,0.68
2022-08-21T16:28:21.794Z,0.40
2022-08-21T16:30:53.064Z,0.32
2022-08-21T16:33:28.371Z,0.52
2022-08-21T16:35:58.005Z,0.68
2022-08-21T16:38:25.962Z,1.10
2022-08-21T16:40:53.756Z,0.80
2022-08-21T16:43:24.099Z,0.40
2022-08-21T16:45:52.250Z,0.60
2022-08-21T16:48:20.012Z,0.55
2022-08-21T16:50:51.033Z,0.70
2022-08-21T16:53:20.411Z,0.85
2022-08-21T16:55:48.881Z,0.50
2022-08-21T16:58:24.698Z,0.30
2022-08-21T17:00:53.433Z,0.60
2022-08-21T17:03:29.932Z,0.40
2022-08-21T17:05:57.704Z,0.68
2022-08-21T17:08:27.058Z,0.47
2022-08-21T17:10:56.896Z,0.80
2022-08-21T17:13:26.117Z,0.70
2022-08-21T17:15:54.465Z,3.00
2022-08-21T17:18:25.675Z,2.67
2022-08-21T17:20:54.334Z,3.60
2022-08-21T17:23:22.473Z,2.10
2022-08-21T17:25:55.305Z,0.93
2022-08-21T17:28:27.254Z,0.90
2022-08-21T17:30:59.522Z,0.45
2022-08-21T17:33:30.718Z,0.70
2022-08-21T17:35:58.598Z,0.38
2022-08-21T17:38:27.858Z,0.63
2022-08-21T17:40:57.279Z,0.40
2022-08-21T17:43:26.365Z,0.30
2022-08-21T17:45:54.380Z,0.50
2022-08-21T17:48:22.282Z,0.35
2022-08-21T17:50:53.516Z,0.60
2022-08-21T17:53:21.995Z,0.65
2022-08-21T17:55:50.004Z,0.75
2022-08-21T17:58:19.657Z,0.50
2022-08-21T18:00:48.419Z,0.30
2022-08-21T18:03:21.625Z,0.80
2022-08-21T18:05:53.744Z,0.50
2022-08-21T18:08:21.541Z,0.43
2022-08-21T18:10:51.456Z,0.75
2022-08-21T18:13:26.563Z,0.98
2022-08-21T18:15:58.558Z,0.55
2022-08-21T18:18:29.306Z,1.10
2022-08-21T18:20:57.975Z,0.82
2022-08-21T18:23:43.897Z,1.15
2022-08-21T18:26:16.404Z,0.55
2022-08-21T18:28:45.814Z,0.82
2022-08-21T18:31:14.944Z,0.35
2022-08-21T18:33:43.700Z,0.60
2022-08-21T18:36:25.942Z,0.88
2022-08-21T18:38:53.756Z,0.38
2022-08-21T18:41:22.132Z,0.95
2022-08-21T18:43:51.508Z,0.70
2022-08-21T18:46:19.670Z,0.93
2022-08-21T18:48:47.648Z,0.50
2022-08-21T18:51:15.466Z,0.65
2022-08-21T18:53:43.244Z,0.50
2022-08-21T18:56:15.457Z,0.40
2022-08-21T18:58:44.874Z,0.70
2022-08-21T19:01:14.642Z,0.82
2022-08-21T19:03:42.938Z,0.50
2022-08-21T19:06:11.979Z,0.40
2022-08-21T19:08:40.122Z,0.93
2022-08-21T19:11:08.632Z,0.88
2022-08-21T19:13:37.483Z,0.60
2022-08-21T19:16:08.178Z,0.70
2022-08-21T19:18:42.663Z,0.88
2022-08-21T19:21:10.578Z,0.90
2022-08-21T19:23:38.547Z,1.30
2022-08-21T19:26:11.969Z,0.88
2022-08-21T19:28:44.852Z,0.85
2022-08-21T19:31:19.692Z,0.85
2022-08-21T19:34:01.709Z,0.75
2022-08-21T19:36:30.093Z,0.70
2022-08-21T19:38:58.071Z,0.75
2022-08-21T19:41:31.793Z,0.82
2022-08-21T19:44:04.688Z,0.65
2022-08-21T19:46:36.816Z,1.60
2022-08-21T19:49:09.293Z,0.90
2022-08-21T19:51:38.592Z,1.20
2022-08-21T19:54:10.871Z,0.60
2022-08-21T19:56:39.164Z,1.15
2022-08-21T19:59:09.515Z,0.70
2022-08-21T20:01:40.036Z,0.80
2022-08-21T20:04:16.842Z,0.65
2022-08-21T20:06:47.770Z,0.77
2022-08-21T20:09:17.153Z,1.23
2022-08-21T20:11:48.785Z,1.25
2022-08-21T20:14:21.601Z,0.70
2022-08-21T20:16:52.588Z,0.98
2022-08-21T20:19:22.801Z,0.65
2022-08-21T20:21:51.068Z,1.13
2022-08-21T20:24:18.912Z,0.70
2022-08-21T20:29:39.423Z,1.00
2022-08-21T20:32:13.179Z,0.63
2022-08-21T20:37:36.565Z,1.08
2022-08-21T20:40:10.090Z,0.98
2022-08-21T20:42:39.526Z,0.65
2022-08-21T20:45:09.415Z,0.80
2022-08-21T20:47:38.979Z,0.55
2022-08-21T20:50:14.393Z,0.68
2022-08-21T20:52:43.249Z,0.60
2022-08-21T20:55:17.636Z,0.77
2022-08-21T20:57:53.564Z,0.88
2022-08-21T21:00:25.999Z,0.88
2022-08-21T21:03:07.088Z,0.95
2022-08-21T21:05:44.091Z,0.95
2022-08-21T21:08:22.681Z,1.00
2022-08-21T21:11:02.873Z,0.98
2022-08-21T21:13:46.499Z,0.68
2022-08-21T21:16:21.268Z,0.80
2022-08-21T21:18:54.871Z,1.20
2022-08-21T21:21:33.755Z,0.80
2022-08-21T21:24:08.326Z,0.73
2022-08-21T21:26:48.677Z,0.93
2022-08-21T21:29:25.255Z,1.02
2022-08-21T21:31:54.556Z,0.77
2022-08-21T21:34:24.510Z,0.50
2022-08-21T21:37:05.552Z,1.02
2022-08-21T21:39:47.742Z,1.17
2022-08-21T21:42:29.939Z,0.65
2022-08-21T21:45:13.958Z,0.93
2022-08-21T21:48:03.240Z,0.63
2022-08-21T21:50:51.886Z,0.85
2022-08-21T21:53:51.576Z,0.82
2022-08-21T21:56:35.774Z,0.65
2022-08-21T21:59:32.154Z,0.98
2022-08-21T22:02:14.182Z,0.80
2022-08-21T22:04:58.492Z,1.00
2022-08-21T22:07:38.294Z,1.15
2022-08-21T22:16:09.350Z,0.82
2022-08-21T22:18:45.222Z,0.93
2022-08-21T22:21:37.001Z,0.90
2022-08-21T22:24:22.747Z,0.52
2022-08-21T22:26:59.786Z,1.05
2022-08-21T22:29:45.908Z,1.30
2022-08-21T22:32:23.531Z,0.88
2022-08-21T22:35:13.868Z,0.50
2022-08-21T22:37:46.581Z,0.70
2022-08-21T22:40:26.540Z,0.40
2022-08-21T22:43:03.366Z,0.80
2022-08-21T22:49:03.000Z,0.90
2022-08-21T22:54:16.663Z,1.02
2022-08-21T22:57:01.748Z,0.98
2022-08-21T22:59:35.159Z,0.95
2022-08-21T23:02:11.381Z,0.70
2022-08-21T23:04:48.474Z,1.05
2022-08-21T23:07:36.394Z,1.15
2022-08-21T23:10:26.206Z,1.23
2022-08-21T23:13:01.928Z,0.70
2022-08-21T23:15:43.465Z,0.65
2022-08-21T23:18:29.382Z,0.80
2022-08-21T23:21:11.387Z,1.08
2022-08-21T23:24:01.387Z,0.55
2022-08-21T23:26:40.337Z,0.88
2022-08-21T23:29:32.034Z,0.93
2022-08-21T23:32:35.695Z,0.98
2022-08-21T23:35:21.324Z,0.85
2022-08-21T23:38:09.355Z,1.00
2022-08-21T23:40:47.049Z,0.70
2022-08-21T23:43:37.386Z,0.90
2022-08-21T23:46:32.423Z,0.73
2022-08-21T23:49:22.149Z,0.93
2022-08-21T23:52:07.647Z,0.88
2022-08-21T23:54:54.448Z,0.85
2022-08-21T23:57:50.447Z,0.77
